Terminal Aerodrome Forecast
Issued by NWS Atlanta, GA

Home | Current Version | Previous Version | Text Only | Print | Product List | Glossary On
Versions: 1 2 3 4 5 6 7 8 9 10 11 12 13
239
FTUS42 KFFC 261120
TAFMCN
TAF
KMCN 261120Z 2612/2712 VRB03KT P6SM SKC
     FM261700 01007KT P6SM FEW045
     FM270000 34003KT P6SM SKC=

USA.gov is the U.S. government's official web portal to all federal, state and local government web resources and services.